Time;durP1;ratioP1;P1;durP2;ratioP2;P2;SDS_P1;SDS_P2;PMS_P1;PMS_P2;Temp;Humidity;BMP_temperature;BMP_pressure;BME280_temperature;BME280_humidity;BME280_pressure;Samples;Min_cycle;Max_cycle;Signal;HPM_P1;HPM_P2
2024/01/02 00:01:53;;;;;;;4.93;2.37;;;4.70;99.90;;;;;;4979680;28;20243;-71
2024/01/02 00:04:19;;;;;;;5.80;2.60;;;4.70;99.90;;;;;;4973969;28;20207;-71
2024/01/02 00:06:48;;;;;;;6.53;2.20;;;4.60;99.90;;;;;;4973828;28;20205;-71
2024/01/02 00:09:15;;;;;;;5.57;2.10;;;4.60;99.90;;;;;;4973738;28;20280;-71
2024/01/02 00:11:43;;;;;;;6.67;2.67;;;4.60;99.90;;;;;;4973823;28;20204;-72
2024/01/02 00:14:10;;;;;;;9.43;2.50;;;4.50;99.90;;;;;;4973572;28;20208;-71
2024/01/02 00:16:37;;;;;;;8.63;2.57;;;4.50;99.90;;;;;;4973432;28;20232;-72
2024/01/02 00:19:03;;;;;;;7.53;2.40;;;4.50;99.90;;;;;;4973736;28;20207;-70
2024/01/02 00:21:30;;;;;;;10.63;2.50;;;4.60;99.90;;;;;;4973629;28;20212;-71
2024/01/02 00:23:58;;;;;;;6.63;2.50;;;4.60;99.90;;;;;;4973355;28;20664;-70
2024/01/02 00:26:25;;;;;;;4.10;2.30;;;4.70;99.90;;;;;;4973406;28;20208;-71
2024/01/02 00:28:53;;;;;;;9.50;2.67;;;4.70;99.90;;;;;;4973347;28;20207;-71
2024/01/02 00:31:20;;;;;;;5.30;2.53;;;4.70;99.90;;;;;;4975109;28;20232;-71
2024/01/02 00:33:46;;;;;;;8.63;2.60;;;4.70;99.90;;;;;;4977067;28;20205;-71
2024/01/02 00:36:13;;;;;;;8.07;2.57;;;4.80;99.90;;;;;;4976912;28;20220;-71
2024/01/02 00:38:40;;;;;;;7.33;2.20;;;4.80;99.90;;;;;;4976723;28;20201;-71
2024/01/02 00:41:07;;;;;;;5.33;2.47;;;4.80;99.90;;;;;;4976791;28;20208;-71
2024/01/02 00:43:33;;;;;;;8.00;2.70;;;4.80;99.90;;;;;;4976456;28;20796;-71
2024/01/02 00:46:02;;;;;;;6.43;2.30;;;4.80;99.90;;;;;;4976831;28;20203;-71
2024/01/02 00:48:29;;;;;;;7.50;3.07;;;4.80;99.90;;;;;;4976831;28;20199;-71
2024/01/02 00:50:56;;;;;;;12.77;2.27;;;4.90;99.90;;;;;;4976707;28;20208;-71
2024/01/02 00:53:22;;;;;;;5.87;2.27;;;4.80;99.90;;;;;;4976659;28;20549;-71
2024/01/02 00:55:49;;;;;;;7.67;2.60;;;4.80;99.90;;;;;;4976459;28;20200;-70
2024/01/02 00:58:15;;;;;;;6.60;2.40;;;4.80;99.90;;;;;;4976365;28;20237;-71
2024/01/02 01:00:42;;;;;;;5.10;2.17;;;4.70;99.90;;;;;;4976605;28;20203;-71
2024/01/02 01:03:10;;;;;;;6.63;3.23;;;4.80;99.90;;;;;;4976527;28;20208;-71
2024/01/02 01:05:37;;;;;;;5.37;2.70;;;4.70;99.90;;;;;;4976409;28;20258;-71
2024/01/02 01:08:05;;;;;;;9.10;2.80;;;4.80;99.90;;;;;;4976376;28;20201;-72
2024/01/02 01:10:31;;;;;;;4.87;2.17;;;4.80;99.90;;;;;;4976254;28;20659;-71
2024/01/02 01:12:58;;;;;;;5.63;2.43;;;4.80;99.90;;;;;;4976187;28;20200;-71
2024/01/02 01:15:24;;;;;;;4.63;2.10;;;4.70;99.90;;;;;;4976380;28;20196;-71
2024/01/02 01:17:51;;;;;;;5.03;2.23;;;4.70;99.90;;;;;;4976117;28;20754;-71
2024/01/02 01:20:19;;;;;;;6.83;2.80;;;4.70;99.90;;;;;;4976008;28;20204;-71
2024/01/02 01:22:46;;;;;;;7.57;2.10;;;4.70;99.90;;;;;;4976051;28;20208;-71
2024/01/02 01:25:12;;;;;;;6.83;2.87;;;4.70;99.90;;;;;;4975927;28;20804;-70
2024/01/02 01:27:39;;;;;;;4.53;2.03;;;4.70;99.90;;;;;;4976155;28;20316;-71
2024/01/02 01:30:07;;;;;;;4.53;2.10;;;4.70;99.90;;;;;;4976128;28;20196;-71
2024/01/02 01:32:33;;;;;;;8.33;1.93;;;4.80;99.90;;;;;;4976057;28;20196;-72
2024/01/02 01:35:00;;;;;;;5.87;2.17;;;4.80;99.90;;;;;;4975882;28;20231;-71
2024/01/02 01:37:28;;;;;;;5.73;2.00;;;4.80;99.90;;;;;;4975751;28;20228;-71
2024/01/02 01:39:56;;;;;;;7.53;2.53;;;4.80;99.90;;;;;;4975683;28;20616;-71
2024/01/02 01:42:23;;;;;;;4.50;2.27;;;4.80;99.90;;;;;;4975146;28;20232;-71
2024/01/02 01:44:49;;;;;;;6.93;2.53;;;4.90;99.90;;;;;;4975974;28;20201;-71
2024/01/02 01:47:17;;;;;;;6.10;2.13;;;4.90;99.90;;;;;;4975664;28;20292;-72
2024/01/02 01:49:44;;;;;;;7.57;2.40;;;4.90;99.90;;;;;;4975787;28;20289;-72
2024/01/02 01:52:11;;;;;;;4.70;2.20;;;5.00;99.90;;;;;;4975613;28;20542;-71
2024/01/02 01:54:40;;;;;;;5.50;2.00;;;5.00;99.90;;;;;;4975735;28;20212;-72
2024/01/02 01:57:07;;;;;;;4.03;2.40;;;5.00;99.90;;;;;;4975481;28;20228;-71
2024/01/02 01:59:34;;;;;;;5.60;2.10;;;5.00;99.90;;;;;;4975611;28;20208;-71
2024/01/02 02:02:02;;;;;;;5.50;1.90;;;5.00;99.90;;;;;;4975565;28;20215;-70
2024/01/02 02:04:35;;;;;;;6.40;1.90;;;4.90;99.90;;;;;;4975451;28;20264;-70
2024/01/02 02:07:03;;;;;;;6.37;1.90;;;4.80;99.90;;;;;;4975413;28;20541;-71
2024/01/02 02:09:30;;;;;;;5.43;1.80;;;4.70;99.90;;;;;;4975355;28;20199;-70
2024/01/02 02:11:58;;;;;;;5.77;2.23;;;4.70;99.90;;;;;;4975239;28;20200;-71
2024/01/02 02:14:25;;;;;;;8.40;3.27;;;4.70;99.90;;;;;;4975333;28;20210;-72
2024/01/02 02:16:52;;;;;;;8.10;2.20;;;4.60;99.90;;;;;;4974920;28;20224;-71
2024/01/02 02:19:19;;;;;;;6.33;2.37;;;4.60;99.90;;;;;;4975033;28;20203;-72
2024/01/02 02:21:52;;;;;;;5.57;2.00;;;4.50;99.90;;;;;;4974985;28;20224;-71
2024/01/02 02:24:27;;;;;;;8.80;2.33;;;4.50;99.90;;;;;;4975206;28;20211;-72
2024/01/02 02:26:57;;;;;;;5.43;2.10;;;4.50;99.90;;;;;;4975060;28;20228;-72
2024/01/02 02:29:25;;;;;;;2.87;1.60;;;4.50;99.90;;;;;;4974866;28;20261;-71
2024/01/02 02:31:52;;;;;;;6.67;2.13;;;4.50;99.90;;;;;;4974758;28;20212;-72
2024/01/02 02:34:22;;;;;;;7.63;2.30;;;4.50;99.90;;;;;;4974747;28;20668;-71
2024/01/02 02:36:49;;;;;;;3.23;1.87;;;4.40;99.90;;;;;;4974624;28;20224;-71
2024/01/02 02:39:19;;;;;;;5.13;2.30;;;4.50;99.90;;;;;;4974859;28;20209;-71
2024/01/02 02:41:47;;;;;;;6.23;2.77;;;4.40;99.90;;;;;;4973882;28;20201;-70
2024/01/02 02:44:14;;;;;;;9.30;2.20;;;4.30;99.90;;;;;;4955322;29;20671;-71
2024/01/02 02:46:41;;;;;;;7.13;2.90;;;4.40;99.90;;;;;;4955274;29;20208;-72
2024/01/02 02:49:08;;;;;;;5.33;2.40;;;4.40;99.90;;;;;;4955308;29;20208;-72
2024/01/02 02:51:38;;;;;;;6.20;2.20;;;4.30;99.90;;;;;;4955260;29;20211;-71
2024/01/02 02:54:05;;;;;;;8.73;2.20;;;4.30;99.90;;;;;;4954933;28;20205;-71
2024/01/02 02:56:31;;;;;;;5.77;1.87;;;4.30;99.90;;;;;;4955100;29;20224;-71
2024/01/02 02:59:00;;;;;;;4.73;1.73;;;4.40;99.90;;;;;;4955047;29;20232;-72
2024/01/02 03:01:27;;;;;;;7.13;1.97;;;4.30;99.90;;;;;;4955433;29;20226;-71
2024/01/02 03:03:53;;;;;;;4.43;1.80;;;4.40;99.90;;;;;;4955126;29;20209;-71
2024/01/02 03:06:20;;;;;;;6.47;2.40;;;4.40;99.90;;;;;;4955081;29;20214;-71
2024/01/02 03:08:47;;;;;;;14.67;2.97;;;4.30;99.90;;;;;;4955214;29;20212;-71
2024/01/02 03:11:16;;;;;;;5.17;2.00;;;4.30;99.90;;;;;;4954950;29;20210;-71
2024/01/02 03:13:43;;;;;;;5.37;1.90;;;4.40;99.90;;;;;;4954984;29;20656;-71
2024/01/02 03:16:12;;;;;;;5.00;1.77;;;4.40;99.90;;;;;;4954753;29;20660;-70
2024/01/02 03:18:39;;;;;;;6.03;2.17;;;4.40;99.90;;;;;;4954795;29;20236;-70
2024/01/02 03:21:06;;;;;;;5.63;2.30;;;4.40;99.90;;;;;;4954863;29;20208;-70
2024/01/02 03:23:33;;;;;;;5.00;2.20;;;4.30;99.90;;;;;;4954814;29;20204;-71
2024/01/02 03:26:00;;;;;;;7.07;1.73;;;4.30;99.90;;;;;;4954554;29;20208;-71
2024/01/02 03:28:27;;;;;;;5.80;2.50;;;4.30;99.90;;;;;;4954897;29;20207;-71
2024/01/02 03:30:54;;;;;;;4.23;1.90;;;4.30;99.90;;;;;;4954888;29;20203;-71
2024/01/02 03:33:22;;;;;;;5.60;1.83;;;4.30;99.90;;;;;;4954765;29;20206;-72
2024/01/02 03:35:48;;;;;;;6.53;2.63;;;4.30;99.90;;;;;;4954726;29;20206;-72
2024/01/02 03:38:15;;;;;;;3.70;2.10;;;4.30;99.90;;;;;;4955056;29;20770;-72
2024/01/02 03:40:41;;;;;;;7.10;2.40;;;4.30;99.90;;;;;;4954542;29;20259;-72
2024/01/02 03:43:08;;;;;;;7.23;2.10;;;4.20;99.90;;;;;;4965291;28;20235;-72
2024/01/02 03:45:35;;;;;;;5.37;2.67;;;4.20;99.90;;;;;;4974043;28;20204;-73
2024/01/02 03:48:01;;;;;;;3.00;1.90;;;4.20;99.90;;;;;;4973954;28;20252;-73
2024/01/02 03:50:29;;;;;;;5.20;2.43;;;4.10;99.90;;;;;;4973824;28;20201;-73
2024/01/02 03:52:56;;;;;;;5.13;2.27;;;4.10;99.90;;;;;;4973817;28;20204;-73
2024/01/02 03:55:23;;;;;;;4.43;2.30;;;4.10;99.90;;;;;;4973684;28;20591;-73
2024/01/02 03:57:49;;;;;;;4.07;2.13;;;4.10;99.90;;;;;;4973816;28;20227;-71
2024/01/02 04:00:16;;;;;;;4.30;2.10;;;4.00;99.90;;;;;;4973789;28;20248;-72
2024/01/02 04:02:43;;;;;;;8.20;2.60;;;4.00;99.90;;;;;;4973789;28;20612;-72
2024/01/02 04:05:10;;;;;;;4.93;2.50;;;4.10;99.90;;;;;;4973596;28;20663;-72
2024/01/02 04:07:38;;;;;;;10.07;2.20;;;4.00;99.90;;;;;;4977232;28;20203;-73
2024/01/02 04:10:06;;;;;;;8.20;2.73;;;4.00;99.90;;;;;;4977552;28;20199;-73
2024/01/02 04:12:33;;;;;;;6.27;2.53;;;4.00;99.90;;;;;;4977468;28;20215;-73
2024/01/02 04:14:59;;;;;;;6.03;2.60;;;4.00;99.90;;;;;;4977195;28;20664;-72
2024/01/02 04:17:26;;;;;;;7.30;2.73;;;4.00;99.90;;;;;;4977300;28;20222;-71
2024/01/02 04:19:52;;;;;;;6.30;3.00;;;4.00;99.90;;;;;;4977254;28;20265;-72
2024/01/02 04:22:19;;;;;;;4.43;2.30;;;3.90;99.90;;;;;;4977147;28;20215;-72
2024/01/02 04:24:47;;;;;;;4.80;2.60;;;3.90;99.90;;;;;;4977353;28;20256;-72
2024/01/02 04:27:14;;;;;;;6.90;3.03;;;3.90;99.90;;;;;;4977190;28;20755;-72
2024/01/02 04:29:40;;;;;;;5.43;2.97;;;3.90;99.90;;;;;;4977128;28;20202;-72
2024/01/02 04:32:07;;;;;;;5.00;2.77;;;3.90;99.90;;;;;;4977028;28;20199;-72
2024/01/02 04:34:34;;;;;;;3.97;2.70;;;3.80;99.90;;;;;;4977034;28;20281;-72
2024/01/02 04:37:00;;;;;;;6.50;2.97;;;3.90;99.90;;;;;;4976870;28;20201;-72
2024/01/02 04:39:27;;;;;;;7.70;4.03;;;3.80;99.90;;;;;;4976934;28;20235;-72
2024/01/02 04:41:55;;;;;;;7.40;3.00;;;3.80;99.90;;;;;;4976853;28;20202;-72
2024/01/02 04:44:21;;;;;;;6.03;2.83;;;3.80;99.90;;;;;;4976837;28;20206;-72
2024/01/02 04:46:48;;;;;;;7.83;2.50;;;3.80;99.90;;;;;;4976734;28;20615;-72
2024/01/02 04:49:15;;;;;;;5.07;3.00;;;3.70;99.90;;;;;;4976615;28;20583;-73
2024/01/02 04:51:41;;;;;;;5.27;3.00;;;3.80;99.90;;;;;;4976636;28;20293;-72
2024/01/02 04:54:08;;;;;;;12.00;3.77;;;3.70;99.90;;;;;;4976766;28;20204;-72
2024/01/02 04:56:35;;;;;;;5.33;2.90;;;3.70;99.90;;;;;;4976579;28;20730;-72
2024/01/02 04:59:03;;;;;;;8.20;3.20;;;3.70;99.90;;;;;;4976551;28;20230;-72
2024/01/02 05:01:30;;;;;;;5.40;2.73;;;3.70;99.90;;;;;;4976524;28;20297;-72
2024/01/02 05:03:57;;;;;;;6.37;3.30;;;3.70;99.90;;;;;;4976363;28;20657;-73
2024/01/02 05:06:24;;;;;;;6.83;3.43;;;3.70;99.90;;;;;;4976362;28;20683;-74
2024/01/02 05:08:51;;;;;;;8.77;3.30;;;3.70;99.90;;;;;;4976491;28;20301;-74
2024/01/02 05:11:17;;;;;;;8.93;3.53;;;3.70;99.90;;;;;;4976583;28;20610;-75
2024/01/02 05:13:44;;;;;;;5.90;3.80;;;3.80;99.90;;;;;;4976338;28;20198;-74
2024/01/02 05:16:12;;;;;;;5.90;3.70;;;3.70;99.90;;;;;;4976214;28;20611;-74
2024/01/02 05:18:38;;;;;;;7.53;4.13;;;3.70;99.90;;;;;;4975165;28;20322;-75
2024/01/02 05:21:07;;;;;;;7.17;3.00;;;3.80;99.90;;;;;;4976056;28;20658;-74
2024/01/02 05:23:33;;;;;;;6.93;3.30;;;3.70;99.90;;;;;;4976032;28;20720;-74
2024/01/02 05:26:00;;;;;;;8.83;3.80;;;3.80;99.90;;;;;;4976181;28;20613;-74
2024/01/02 05:28:27;;;;;;;7.23;3.87;;;3.80;99.90;;;;;;4976012;28;20269;-74
2024/01/02 05:30:53;;;;;;;5.93;3.00;;;3.80;99.90;;;;;;4975964;28;20226;-74
2024/01/02 05:33:21;;;;;;;5.13;3.17;;;3.80;99.90;;;;;;4975952;28;20207;-74
2024/01/02 05:35:48;;;;;;;7.90;4.73;;;3.90;99.90;;;;;;4976044;28;20253;-75
2024/01/02 05:38:14;;;;;;;6.93;2.67;;;3.90;99.90;;;;;;4975959;28;20278;-75
2024/01/02 05:40:41;;;;;;;6.33;2.70;;;3.90;99.90;;;;;;4975783;28;20203;-75
2024/01/02 05:43:08;;;;;;;6.30;3.40;;;3.90;99.90;;;;;;4975631;28;20363;-76
2024/01/02 05:45:36;;;;;;;5.57;2.80;;;3.90;99.90;;;;;;4975681;28;20206;-75
2024/01/02 05:48:03;;;;;;;4.47;3.00;;;4.00;99.90;;;;;;4975905;28;20204;-75
2024/01/02 05:50:31;;;;;;;4.27;2.63;;;4.00;99.90;;;;;;4975831;28;20208;-75
2024/01/02 05:52:58;;;;;;;5.90;2.43;;;4.00;99.90;;;;;;4975706;28;20208;-74
2024/01/02 05:55:24;;;;;;;6.43;2.73;;;4.00;99.90;;;;;;4975847;28;20203;-74
2024/01/02 05:57:51;;;;;;;5.03;2.50;;;4.00;99.90;;;;;;4977389;28;20236;-74
2024/01/02 06:00:18;;;;;;;6.13;3.60;;;4.00;99.90;;;;;;4977253;28;20250;-75
2024/01/02 06:02:45;;;;;;;6.87;2.60;;;4.00;99.90;;;;;;4977459;28;20206;-75
2024/01/02 06:05:12;;;;;;;4.57;2.90;;;4.00;99.90;;;;;;4976248;28;20201;-75
2024/01/02 06:07:40;;;;;;;7.50;3.63;;;3.90;99.90;;;;;;4975823;28;20215;-74
2024/01/02 06:10:07;;;;;;;5.87;2.50;;;4.00;99.90;;;;;;4975485;28;20252;-75
2024/01/02 06:12:34;;;;;;;6.13;2.83;;;4.00;99.90;;;;;;4975305;28;20206;-75
2024/01/02 06:15:02;;;;;;;4.87;2.73;;;4.00;99.90;;;;;;4975448;28;20212;-75
2024/01/02 06:17:29;;;;;;;5.67;3.10;;;4.00;99.90;;;;;;4975289;28;20374;-75
2024/01/02 06:19:56;;;;;;;5.47;3.57;;;4.00;99.90;;;;;;4975175;28;20737;-75
2024/01/02 06:22:23;;;;;;;4.77;2.27;;;3.90;99.90;;;;;;4975197;28;20208;-75
2024/01/02 06:24:51;;;;;;;4.83;2.90;;;3.90;99.90;;;;;;4975137;28;20308;-75
2024/01/02 06:27:18;;;;;;;7.10;3.37;;;3.90;99.90;;;;;;4975075;28;20207;-75
2024/01/02 06:29:44;;;;;;;5.67;3.07;;;4.00;99.90;;;;;;4977069;28;20229;-76
2024/01/02 06:32:11;;;;;;;8.87;4.83;;;4.00;99.90;;;;;;4975441;28;20252;-76
2024/01/02 06:34:37;;;;;;;2.87;2.40;;;4.00;99.90;;;;;;4975330;28;20203;-76
2024/01/02 06:37:05;;;;;;;4.63;2.93;;;4.00;99.90;;;;;;4977831;28;20208;-76
2024/01/02 06:39:32;;;;;;;4.00;2.67;;;4.00;99.90;;;;;;4975140;28;20228;-76
2024/01/02 06:42:00;;;;;;;8.03;5.03;;;4.00;99.90;;;;;;4974535;28;20652;-76
2024/01/02 06:44:26;;;;;;;9.33;4.83;;;4.10;99.90;;;;;;4974899;28;20208;-77
2024/01/02 06:46:53;;;;;;;11.60;9.77;;;4.00;99.90;;;;;;4974663;28;20257;-78
2024/01/02 06:49:19;;;;;;;4.93;3.27;;;4.10;99.90;;;;;;4974578;28;20247;-77
2024/01/02 06:51:46;;;;;;;14.50;10.63;;;4.00;99.90;;;;;;4974460;28;20281;-78
2024/01/02 06:54:13;;;;;;;5.93;2.97;;;4.10;99.90;;;;;;4974482;28;20207;-78
2024/01/02 06:56:39;;;;;;;3.67;2.77;;;4.10;99.90;;;;;;4974464;28;20258;-79
2024/01/02 06:59:07;;;;;;;6.40;4.03;;;4.10;99.90;;;;;;4974700;28;20238;-78
2024/01/02 07:01:34;;;;;;;7.83;5.80;;;4.10;99.90;;;;;;4974489;28;20600;-79
2024/01/02 07:04:02;;;;;;;5.20;3.40;;;4.10;99.90;;;;;;4974550;28;20196;-77
2024/01/02 07:06:28;;;;;;;11.40;10.00;;;4.10;99.90;;;;;;4974505;28;20207;-78
2024/01/02 07:08:54;;;;;;;7.70;3.57;;;4.20;99.90;;;;;;4974429;28;20213;-78
2024/01/02 07:11:21;;;;;;;6.53;3.43;;;4.10;99.90;;;;;;4974542;28;20203;-77
2024/01/02 07:13:47;;;;;;;5.90;3.53;;;4.10;99.90;;;;;;4974170;28;20593;-77
2024/01/02 07:16:15;;;;;;;4.57;3.30;;;4.10;99.90;;;;;;4974403;28;20249;-77
2024/01/02 07:18:42;;;;;;;5.10;3.50;;;4.10;99.90;;;;;;4974197;28;20230;-77
2024/01/02 07:21:09;;;;;;;5.23;3.07;;;4.10;99.90;;;;;;4974256;28;20211;-77
2024/01/02 07:23:35;;;;;;;6.23;3.17;;;4.10;99.90;;;;;;4974430;28;20206;-75
2024/01/02 07:26:02;;;;;;;9.30;4.77;;;4.10;99.90;;;;;;4974268;28;20678;-76
2024/01/02 07:28:29;;;;;;;9.53;5.53;;;4.10;99.90;;;;;;4974290;28;20281;-76
2024/01/02 07:30:55;;;;;;;7.23;2.83;;;4.20;99.90;;;;;;4974242;28;20250;-76
2024/01/02 07:33:23;;;;;;;3.97;2.83;;;4.20;99.90;;;;;;4974105;28;20204;-76
2024/01/02 07:35:50;;;;;;;7.33;3.70;;;4.30;99.90;;;;;;4974051;28;20333;-76
2024/01/02 07:38:17;;;;;;;5.97;3.03;;;4.30;99.90;;;;;;4973935;28;20738;-76
2024/01/02 07:40:43;;;;;;;6.10;3.00;;;4.30;99.90;;;;;;4974824;28;20254;-76
2024/01/02 07:43:10;;;;;;;13.97;4.97;;;4.30;99.90;;;;;;4977893;28;20776;-76
2024/01/02 07:45:36;;;;;;;4.97;3.40;;;4.30;99.90;;;;;;4977555;28;20249;-77
2024/01/02 07:48:03;;;;;;;7.50;3.53;;;4.30;99.90;;;;;;4977712;28;20211;-76
2024/01/02 07:50:31;;;;;;;6.87;3.57;;;4.30;99.90;;;;;;4977640;28;20262;-76
2024/01/02 07:52:58;;;;;;;4.53;2.90;;;4.40;99.90;;;;;;4978069;28;20277;-76
2024/01/02 07:55:24;;;;;;;5.17;2.93;;;4.40;99.90;;;;;;4977777;28;20200;-76
2024/01/02 07:57:51;;;;;;;5.23;2.80;;;4.40;99.90;;;;;;4977673;28;20204;-76
2024/01/02 08:00:19;;;;;;;5.60;3.60;;;4.40;99.90;;;;;;4977777;28;20257;-76
2024/01/02 08:02:45;;;;;;;7.00;3.70;;;4.30;99.90;;;;;;4970022;28;20207;-76
2024/01/02 08:05:12;;;;;;;7.20;3.57;;;4.30;99.90;;;;;;4977501;28;20255;-76
2024/01/02 08:07:40;;;;;;;4.67;2.60;;;4.40;99.90;;;;;;4977681;28;20206;-76
2024/01/02 08:10:08;;;;;;;5.77;2.53;;;4.40;99.90;;;;;;4977710;28;20208;-75
2024/01/02 08:12:35;;;;;;;3.93;2.67;;;4.40;99.90;;;;;;4977403;28;20603;-76
2024/01/02 08:15:02;;;;;;;2.73;2.43;;;4.50;99.90;;;;;;4977183;28;20262;-76
2024/01/02 08:17:28;;;;;;;3.67;2.33;;;4.50;99.90;;;;;;4977304;28;20203;-76
2024/01/02 08:19:55;;;;;;;6.47;3.03;;;4.50;99.90;;;;;;4977386;28;20317;-75
2024/01/02 08:22:22;;;;;;;4.77;2.23;;;4.60;99.90;;;;;;4977417;28;20265;-77
2024/01/02 08:24:51;;;;;;;5.50;2.30;;;4.60;99.90;;;;;;4977353;28;20262;-76
2024/01/02 08:27:18;;;;;;;2.80;2.47;;;4.70;99.90;;;;;;4977030;28;20659;-76
2024/01/02 08:29:44;;;;;;;2.53;1.90;;;4.70;99.90;;;;;;4977204;28;20563;-76
2024/01/02 08:32:11;;;;;;;7.53;2.53;;;4.70;99.90;;;;;;4977066;28;20234;-76
2024/01/02 08:34:39;;;;;;;3.33;2.20;;;4.70;99.90;;;;;;4977070;28;20255;-77
2024/01/02 08:37:05;;;;;;;3.97;2.50;;;4.70;99.90;;;;;;4977356;28;20213;-77
2024/01/02 08:39:32;;;;;;;2.67;2.10;;;4.80;99.90;;;;;;4977227;28;20712;-77
2024/01/02 08:42:00;;;;;;;2.30;1.73;;;4.90;99.90;;;;;;4977264;28;20204;-77
2024/01/02 08:44:26;;;;;;;6.60;2.13;;;4.90;99.90;;;;;;4977331;28;20258;-77
2024/01/02 08:46:53;;;;;;;3.23;2.20;;;5.00;99.90;;;;;;4977018;28;20203;-76
2024/01/02 08:49:20;;;;;;;2.77;1.90;;;5.00;99.90;;;;;;4977038;28;20239;-76
2024/01/02 08:51:46;;;;;;;2.50;1.70;;;5.10;99.90;;;;;;4976443;28;20259;-76
2024/01/02 08:54:13;;;;;;;1.77;1.60;;;5.20;99.90;;;;;;4976229;28;20207;-76
2024/01/02 08:56:40;;;;;;;2.33;1.37;;;5.30;99.90;;;;;;4976779;28;20545;-76
2024/01/02 08:59:07;;;;;;;3.00;1.83;;;5.30;99.90;;;;;;4976544;28;20224;-76
2024/01/02 09:01:34;;;;;;;1.80;1.57;;;5.40;99.90;;;;;;4976774;28;20270;-76
2024/01/02 09:04:01;;;;;;;3.57;1.60;;;5.50;99.90;;;;;;4976767;28;20336;-75
2024/01/02 09:06:27;;;;;;;1.53;1.43;;;5.50;99.90;;;;;;4976485;28;20671;-75
2024/01/02 09:08:57;;;;;;;2.17;1.50;;;5.60;99.90;;;;;;4976447;28;20615;-75
2024/01/02 09:11:24;;;;;;;1.90;1.40;;;5.70;99.90;;;;;;4976463;28;20200;-75
2024/01/02 09:13:50;;;;;;;1.30;1.20;;;5.70;99.90;;;;;;4976333;28;20208;-75
2024/01/02 09:16:18;;;;;;;2.10;1.60;;;5.70;99.90;;;;;;4976506;28;20251;-75
2024/01/02 09:18:45;;;;;;;2.47;1.37;;;5.70;99.90;;;;;;4976093;28;20585;-75
2024/01/02 09:21:11;;;;;;;1.60;1.13;;;5.80;99.90;;;;;;4976276;28;20200;-75
2024/01/02 09:23:38;;;;;;;1.30;1.20;;;5.80;99.90;;;;;;4976340;28;20255;-76
2024/01/02 09:26:08;;;;;;;1.63;1.30;;;5.90;99.90;;;;;;4976180;28;20307;-76
2024/01/02 09:28:36;;;;;;;1.57;1.27;;;5.90;99.90;;;;;;4976015;28;20200;-76
2024/01/02 09:31:03;;;;;;;1.20;1.10;;;6.00;99.90;;;;;;4976250;28;20208;-76
2024/01/02 09:33:31;;;;;;;1.23;1.13;;;6.10;99.90;;;;;;4976208;28;20201;-77
2024/01/02 09:35:58;;;;;;;1.13;1.00;;;6.10;99.90;;;;;;4975902;28;20649;-77
2024/01/02 09:38:25;;;;;;;1.73;1.03;;;6.20;99.90;;;;;;4975837;28;20206;-77
2024/01/02 09:41:07;;;;;;;1.30;1.20;;;6.20;99.90;;;;;;4975734;28;20260;-77
2024/01/02 09:43:43;;;;;;;1.30;1.17;;;6.20;99.90;;;;;;4975642;28;20650;-77
2024/01/02 09:46:21;;;;;;;1.43;1.10;;;6.30;99.90;;;;;;4975984;28;20254;-77
2024/01/02 09:49:02;;;;;;;1.77;1.00;;;6.40;99.90;;;;;;4975806;28;20200;-76
2024/01/02 09:51:42;;;;;;;1.73;1.10;;;6.50;99.90;;;;;;4975589;28;20652;-76
2024/01/02 09:54:26;;;;;;;1.30;1.20;;;6.60;99.90;;;;;;4975716;28;20250;-76
2024/01/02 09:56:58;;;;;;;1.27;1.10;;;6.70;99.90;;;;;;4975519;28;20263;-75
2024/01/02 09:59:46;;;;;;;1.10;1.00;;;6.80;99.90;;;;;;4975353;28;20220;-75
2024/01/02 10:02:56;;;;;;;1.10;1.00;;;6.80;99.90;;;;;;4975876;28;20251;-75
2024/01/02 10:05:35;;;;;;;1.10;1.00;;;6.90;99.90;;;;;;4878050;29;20218;-75
2024/01/02 10:08:49;;;;;;;1.40;1.30;;;7.00;99.90;;;;;;4878405;29;20207;-76
2024/01/02 10:11:26;;;;;;;1.30;1.20;;;7.10;99.90;;;;;;4926939;29;20250;-75
2024/01/02 10:14:00;;;;;;;1.60;0.97;;;7.20;99.90;;;;;;4968028;28;20251;-75
2024/01/02 10:16:33;;;;;;;1.73;1.30;;;7.20;99.90;;;;;;4975230;28;20207;-74
2024/01/02 10:19:09;;;;;;;1.03;1.00;;;7.30;99.90;;;;;;4975238;28;20679;-76
2024/01/02 10:21:46;;;;;;;1.47;1.20;;;7.40;99.90;;;;;;4975122;28;20258;-76
2024/01/02 10:24:24;;;;;;;1.10;1.00;;;7.40;99.90;;;;;;4974914;28;20727;-75
2024/01/02 10:27:03;;;;;;;1.77;1.10;;;7.40;99.90;;;;;;4974833;28;20254;-75
2024/01/02 10:29:38;;;;;;;4.30;2.70;;;7.50;99.90;;;;;;4975067;28;20204;-75
2024/01/02 10:32:12;;;;;;;2.03;1.13;;;7.50;99.90;;;;;;4975024;28;20532;-74
2024/01/02 10:34:49;;;;;;;1.33;1.00;;;7.50;99.90;;;;;;4974854;28;20204;-74
2024/01/02 10:37:19;;;;;;;1.03;0.93;;;7.50;99.90;;;;;;4974648;28;20486;-74
2024/01/02 10:39:48;;;;;;;1.90;0.80;;;7.50;99.90;;;;;;4974669;28;20227;-73
2024/01/02 10:42:30;;;;;;;1.87;1.00;;;7.50;99.90;;;;;;4974453;28;20238;-73
2024/01/02 10:45:07;;;;;;;1.13;1.03;;;7.50;99.90;;;;;;4974579;28;20203;-74
2024/01/02 10:47:42;;;;;;;1.07;0.90;;;7.60;99.90;;;;;;4974502;28;20636;-73
2024/01/02 10:50:13;;;;;;;0.97;0.80;;;7.60;99.90;;;;;;4974558;28;20200;-74
2024/01/02 10:52:51;;;;;;;1.20;1.00;;;7.60;99.90;;;;;;4974488;28;20251;-73
2024/01/02 10:55:26;;;;;;;2.57;1.03;;;7.60;99.90;;;;;;4974478;28;20204;-73
2024/01/02 10:58:01;;;;;;;1.27;1.10;;;7.70;99.90;;;;;;4974402;28;20200;-74
2024/01/02 11:00:33;;;;;;;1.20;1.10;;;7.70;99.90;;;;;;4974596;28;20707;-73
2024/01/02 11:03:09;;;;;;;1.60;1.50;;;7.80;99.90;;;;;;4974541;28;20675;-73
2024/01/02 11:05:39;;;;;;;0.97;0.87;;;7.80;99.90;;;;;;4974569;28;20303;-73
2024/01/02 11:08:14;;;;;;;1.20;1.07;;;7.90;99.90;;;;;;4974335;28;20204;-72
2024/01/02 11:10:49;;;;;;;0.80;0.80;;;7.90;99.90;;;;;;4974278;28;20203;-73
2024/01/02 11:13:18;;;;;;;1.10;1.00;;;8.00;99.90;;;;;;4974358;28;20299;-73
2024/01/02 11:15:47;;;;;;;1.10;1.00;;;8.00;99.90;;;;;;4973387;28;20679;-73
2024/01/02 11:18:16;;;;;;;0.83;0.83;;;8.10;99.90;;;;;;4974430;28;20200;-73
2024/01/02 11:20:52;;;;;;;1.93;1.00;;;8.10;99.90;;;;;;4974148;28;20238;-71
2024/01/02 11:23:22;;;;;;;0.90;0.90;;;8.20;99.90;;;;;;4974230;28;20207;-73
2024/01/02 11:25:55;;;;;;;0.77;0.77;;;8.20;99.90;;;;;;4974229;28;20568;-72
2024/01/02 11:28:24;;;;;;;1.07;0.97;;;8.30;99.90;;;;;;4974156;28;20207;-73
2024/01/02 11:30:52;;;;;;;1.80;1.20;;;8.40;99.90;;;;;;4974070;28;20204;-72
2024/01/02 11:33:26;;;;;;;1.50;1.40;;;8.40;99.90;;;;;;4974298;28;20204;-74
2024/01/02 11:36:11;;;;;;;1.20;1.00;;;8.40;99.90;;;;;;4974267;28;20211;-72
2024/01/02 11:38:54;;;;;;;1.00;0.90;;;8.50;99.90;;;;;;4974253;28;20201;-73
2024/01/02 11:41:32;;;;;;;1.10;1.00;;;8.50;99.90;;;;;;4973985;28;20224;-73
2024/01/02 11:44:05;;;;;;;2.13;1.37;;;8.50;99.90;;;;;;4973786;28;20224;-72
2024/01/02 11:46:37;;;;;;;1.73;1.20;;;8.50;99.90;;;;;;4974178;28;20200;-74
2024/01/02 11:49:10;;;;;;;1.20;1.10;;;8.50;99.90;;;;;;4974202;28;20202;-74
2024/01/02 11:51:42;;;;;;;1.27;1.07;;;8.60;99.90;;;;;;4974054;28;20267;-73
2024/01/02 11:54:28;;;;;;;0.87;0.83;;;8.50;99.90;;;;;;4974039;28;20235;-73
2024/01/02 11:56:54;;;;;;;3.13;1.20;;;8.50;99.90;;;;;;4974010;28;20238;-72
2024/01/02 11:59:33;;;;;;;1.17;1.00;;;8.40;99.90;;;;;;4973977;28;20204;-74
2024/01/02 12:02:04;;;;;;;1.53;1.20;;;8.30;99.90;;;;;;4974009;28;20262;-74
2024/01/02 12:04:43;;;;;;;1.03;0.93;;;8.30;99.90;;;;;;4973839;28;20204;-75
2024/01/02 12:07:13;;;;;;;1.00;0.90;;;8.20;99.90;;;;;;4974103;28;20208;-75
2024/01/02 12:09:46;;;;;;;2.80;1.30;;;8.20;99.90;;;;;;4973914;28;20542;-75
2024/01/02 12:12:32;;;;;;;1.30;1.20;;;8.20;99.90;;;;;;4973863;28;20203;-74
2024/01/02 12:15:05;;;;;;;1.80;1.30;;;8.20;99.90;;;;;;4973745;28;20275;-73
2024/01/02 12:17:38;;;;;;;1.30;1.00;;;8.30;99.90;;;;;;4973918;28;20201;-72
2024/01/02 12:20:08;;;;;;;0.80;0.80;;;8.30;99.90;;;;;;4973709;28;20224;-72
2024/01/02 12:22:35;;;;;;;1.30;1.13;;;8.30;99.90;;;;;;4973547;28;20204;-73
2024/01/02 12:25:06;;;;;;;1.20;0.80;;;8.30;99.90;;;;;;4973388;28;20723;-72
2024/01/02 12:27:35;;;;;;;1.10;1.00;;;8.30;99.90;;;;;;4975315;28;20200;-72
2024/01/02 12:30:04;;;;;;;1.97;1.30;;;8.30;99.90;;;;;;4977079;28;20277;-72
2024/01/02 12:32:47;;;;;;;1.33;1.07;;;8.40;99.90;;;;;;4977212;28;20274;-72
2024/01/02 12:35:26;;;;;;;1.40;1.13;;;8.40;99.90;;;;;;4977112;28;20204;-72
2024/01/02 12:38:06;;;;;;;1.40;1.30;;;8.30;99.90;;;;;;4977008;28;20268;-72
2024/01/02 12:40:37;;;;;;;1.37;1.23;;;8.40;99.90;;;;;;4977086;28;20230;-72
2024/01/02 12:43:07;;;;;;;1.07;1.00;;;8.40;99.90;;;;;;4976808;28;20310;-73
2024/01/02 12:45:37;;;;;;;1.30;1.00;;;8.30;99.90;;;;;;4976915;28;20211;-73
2024/01/02 12:48:06;;;;;;;1.33;1.13;;;8.30;99.90;;;;;;4976724;28;20660;-72
2024/01/02 12:50:36;;;;;;;1.70;1.40;;;8.30;99.90;;;;;;4976642;28;20214;-73
2024/01/02 12:53:09;;;;;;;1.10;1.00;;;8.30;99.90;;;;;;4976780;28;20201;-72
2024/01/02 12:55:43;;;;;;;1.30;1.20;;;8.30;99.90;;;;;;4976570;28;20613;-73
2024/01/02 12:58:12;;;;;;;1.60;1.10;;;8.30;99.90;;;;;;4976676;28;20206;-73
2024/01/02 13:00:39;;;;;;;1.00;0.90;;;8.20;99.90;;;;;;4976487;28;20636;-73
2024/01/02 13:03:07;;;;;;;2.43;1.20;;;8.20;99.90;;;;;;4976456;28;20295;-73
2024/01/02 13:05:34;;;;;;;1.43;1.33;;;8.20;99.90;;;;;;4976619;28;20204;-73
2024/01/02 13:08:02;;;;;;;1.10;1.00;;;8.20;99.90;;;;;;4976626;28;20208;-72